Moscow, ID

1:24 AM PDT on August 29, 2014 (GMT -0700)
Lewiston-Nez Perce County | Change Station
CLOSE
Current Station
Airport
Location: Lewiston,
Elevation: 1437 ft
Nearby Weather Stations

Elev 1437 ft 46.37 °N, 117.02 °W | Updated 28 minutes ago

Clear
Clear
64 °F
Feels Like 64 °F
N
5
Wind Variable Wind from SE

Today
High -- | Low -- °F
--% Chance of Precip.
Yesterday
High -- | Low -- °F
Precip. -- in
6:03 AM 7:32 PM
Waxing Crescent, 13% visible
Pressure 29.93 in
Visibility 10.0 miles
Clouds Clear
Dew Point 44 °F
Humidity 48%
Rainfall 0.00 in
Snow Depth Not available.
UV 0 out of 12
Pollen 8.00 out of 12
PM2.5 Good
Flu Activity Not available.
METAR KLWS 290756Z AUTO 14004KT 10SM CLR 18/07 A2995 RMK AO2 SLP133 T01780067 403220178

More Conditions Fewer Conditions

Pressure 29.93 in
Visibility 10.0 miles
Clouds Clear
Dew Point 44 °F
Humidity 48%
Rainfall 0.00 in
Snow Depth Not available.
UV 0 out of 12
Pollen 8.00 out of 12
PM2.5 Good
Flu Activity Not available.
METAR KLWS 290756Z AUTO 14004KT 10SM CLR 18/07 A2995 RMK AO2 SLP133 T01780067 403220178

More Conditions Fewer Conditions

10-Day Weather Forecast

Almanac

Astronomy

Aug. 29, 2014 Rise Set
Actual Time 6:03 AM PDT 7:32 PM PDT
Civil Twilight 5:32 AM PDT 8:04 PM PDT
Nautical Twilight 4:53 AM PDT 8:42 PM PDT
Astronomical Twilight 4:12 AM PDT 9:23 PM PDT
Moon 10:14 AM PDT 9:14 PM PDT
Length of Visible Light 14h 31m
Length of Day
13h 28m
Tomorrow will be 3m 11s shorter.
Waxing Crescent, 13% of the Moon is Illuminated
Today
Waxing Crescent
Sep 2
First Quarter
Sep 8
Full
Sep 15
Last Quarter
Sep 24
New

Today's Extremes

State Highs State Lows

Community

WunderPhotos

Upload Photos

1,748,197 photos uploaded!

Nearby

Air Quality

  Air Quality AQ Index Pollutant
Yesterday Good
PM2.5
Current Good
PM2.5
Thursday Good
PM2.5
Friday Good
PM2.5
Saturday Good
PM2.5

Snow Depth

Station Depth Elevation
Moscow Mountain 0 in 4700 ft
Sherwin 1 in 3200 ft
Mica Creek 0 in 4750 ft
Lost Lake 0 in 6110 ft
Shanghi Summit 0 in 4570 ft

Earthquake Activity

City Distance Mag. Time & Date
No recent earthquake activity has been reported nearby.
Minimum magnitude displayed is 2.5.

Coastal Water Temperatures

Place Temperature
No Stations Reporting

Nearby Weather Stations